sensor_id;sensor_type;location;lat;lon;timestamp;temperature;humidity
3550;DHT22;45572;48.804;8.330;2023-05-29T00:01:51;13.90;84.20
3550;DHT22;45572;48.804;8.330;2023-05-29T00:04:20;13.90;84.20
3550;DHT22;45572;48.804;8.330;2023-05-29T00:06:48;13.80;84.30
3550;DHT22;45572;48.804;8.330;2023-05-29T00:09:17;13.70;84.50
3550;DHT22;45572;48.804;8.330;2023-05-29T00:11:45;13.70;84.50
3550;DHT22;45572;48.804;8.330;2023-05-29T00:14:32;13.70;84.60
3550;DHT22;45572;48.804;8.330;2023-05-29T00:17:00;13.70;84.80
3550;DHT22;45572;48.804;8.330;2023-05-29T00:19:29;13.70;84.70
3550;DHT22;45572;48.804;8.330;2023-05-29T00:21:57;13.60;84.70
3550;DHT22;45572;48.804;8.330;2023-05-29T00:24:25;13.60;84.90
3550;DHT22;45572;48.804;8.330;2023-05-29T00:26:52;13.50;85.20
3550;DHT22;45572;48.804;8.330;2023-05-29T00:29:20;13.50;85.20
3550;DHT22;45572;48.804;8.330;2023-05-29T00:31:50;13.50;85.20
3550;DHT22;45572;48.804;8.330;2023-05-29T00:34:22;13.50;85.20
3550;DHT22;45572;48.804;8.330;2023-05-29T00:36:51;13.50;85.20
3550;DHT22;45572;48.804;8.330;2023-05-29T00:39:21;13.50;85.20
3550;DHT22;45572;48.804;8.330;2023-05-29T00:41:49;13.50;85.20
3550;DHT22;45572;48.804;8.330;2023-05-29T00:44:17;13.50;85.30
3550;DHT22;45572;48.804;8.330;2023-05-29T00:46:45;13.30;85.70
3550;DHT22;45572;48.804;8.330;2023-05-29T00:49:15;13.30;85.90
3550;DHT22;45572;48.804;8.330;2023-05-29T00:51:44;13.30;86.20
3550;DHT22;45572;48.804;8.330;2023-05-29T00:54:16;13.30;85.80
3550;DHT22;45572;48.804;8.330;2023-05-29T00:56:45;13.40;86.00
3550;DHT22;45572;48.804;8.330;2023-05-29T00:59:13;13.40;86.20
3550;DHT22;45572;48.804;8.330;2023-05-29T01:01:57;13.40;85.90
3550;DHT22;45572;48.804;8.330;2023-05-29T01:04:27;13.50;85.80
3550;DHT22;45572;48.804;8.330;2023-05-29T01:06:55;13.50;85.70
3550;DHT22;45572;48.804;8.330;2023-05-29T01:09:23;13.50;85.50
3550;DHT22;45572;48.804;8.330;2023-05-29T01:11:59;13.50;85.60
3550;DHT22;45572;48.804;8.330;2023-05-29T01:14:39;13.50;85.80
3550;DHT22;45572;48.804;8.330;2023-05-29T01:17:32;13.50;85.80
3550;DHT22;45572;48.804;8.330;2023-05-29T01:20:12;13.40;86.00
3550;DHT22;45572;48.804;8.330;2023-05-29T01:23:07;13.40;86.00
3550;DHT22;45572;48.804;8.330;2023-05-29T01:25:58;13.30;86.20
3550;DHT22;45572;48.804;8.330;2023-05-29T01:28:33;13.30;86.20
3550;DHT22;45572;48.804;8.330;2023-05-29T01:31:05;13.30;86.40
3550;DHT22;45572;48.804;8.330;2023-05-29T01:33:38;13.20;86.50
3550;DHT22;45572;48.804;8.330;2023-05-29T01:36:07;13.20;86.60
3550;DHT22;45572;48.804;8.330;2023-05-29T01:38:35;13.20;86.50
3550;DHT22;45572;48.804;8.330;2023-05-29T01:41:03;13.20;86.40
3550;DHT22;45572;48.804;8.330;2023-05-29T01:43:33;13.20;85.90
3550;DHT22;45572;48.804;8.330;2023-05-29T01:46:29;13.10;86.60
3550;DHT22;45572;48.804;8.330;2023-05-29T01:48:57;13.20;86.40
3550;DHT22;45572;48.804;8.330;2023-05-29T01:51:26;13.10;86.30
3550;DHT22;45572;48.804;8.330;2023-05-29T01:53:54;13.20;86.10
3550;DHT22;45572;48.804;8.330;2023-05-29T01:56:21;13.30;85.60
3550;DHT22;45572;48.804;8.330;2023-05-29T01:58:51;13.30;85.70
3550;DHT22;45572;48.804;8.330;2023-05-29T02:01:25;13.40;85.70
3550;DHT22;45572;48.804;8.330;2023-05-29T02:04:07;13.40;85.70
3550;DHT22;45572;48.804;8.330;2023-05-29T02:06:35;13.40;85.60
3550;DHT22;45572;48.804;8.330;2023-05-29T02:09:03;13.30;85.70
3550;DHT22;45572;48.804;8.330;2023-05-29T02:11:32;13.20;85.70
3550;DHT22;45572;48.804;8.330;2023-05-29T02:14:02;13.20;86.10
3550;DHT22;45572;48.804;8.330;2023-05-29T02:16:44;13.10;86.00
3550;DHT22;45572;48.804;8.330;2023-05-29T02:19:12;13.10;86.20
3550;DHT22;45572;48.804;8.330;2023-05-29T02:21:40;13.10;86.20
3550;DHT22;45572;48.804;8.330;2023-05-29T02:24:08;13.00;86.30
3550;DHT22;45572;48.804;8.330;2023-05-29T02:26:35;13.10;86.40
3550;DHT22;45572;48.804;8.330;2023-05-29T02:29:05;13.00;86.40
3550;DHT22;45572;48.804;8.330;2023-05-29T02:31:33;13.00;86.40
3550;DHT22;45572;48.804;8.330;2023-05-29T02:34:04;13.00;86.60
3550;DHT22;45572;48.804;8.330;2023-05-29T02:36:33;13.10;86.50
3550;DHT22;45572;48.804;8.330;2023-05-29T02:39:04;13.00;86.50
3550;DHT22;45572;48.804;8.330;2023-05-29T02:41:31;12.90;86.50
3550;DHT22;45572;48.804;8.330;2023-05-29T02:43:59;12.90;86.50
3550;DHT22;45572;48.804;8.330;2023-05-29T02:46:29;12.90;86.50
3550;DHT22;45572;48.804;8.330;2023-05-29T02:48:57;12.90;86.70
3550;DHT22;45572;48.804;8.330;2023-05-29T02:51:24;12.80;86.80
3550;DHT22;45572;48.804;8.330;2023-05-29T02:53:54;12.80;86.70
3550;DHT22;45572;48.804;8.330;2023-05-29T02:56:22;12.60;86.90
3550;DHT22;45572;48.804;8.330;2023-05-29T02:58:50;12.50;87.50
3550;DHT22;45572;48.804;8.330;2023-05-29T03:01:32;12.50;87.70
3550;DHT22;45572;48.804;8.330;2023-05-29T03:04:00;12.50;87.60
3550;DHT22;45572;48.804;8.330;2023-05-29T03:06:42;12.50;87.40
3550;DHT22;45572;48.804;8.330;2023-05-29T03:09:09;12.40;88.00
3550;DHT22;45572;48.804;8.330;2023-05-29T03:11:38;12.40;88.00
3550;DHT22;45572;48.804;8.330;2023-05-29T03:14:08;12.40;87.90
3550;DHT22;45572;48.804;8.330;2023-05-29T03:16:37;12.40;87.70
3550;DHT22;45572;48.804;8.330;2023-05-29T03:19:07;12.40;87.80
3550;DHT22;45572;48.804;8.330;2023-05-29T03:21:36;12.40;87.90
3550;DHT22;45572;48.804;8.330;2023-05-29T03:24:04;12.40;87.70
3550;DHT22;45572;48.804;8.330;2023-05-29T03:26:33;12.30;87.70
3550;DHT22;45572;48.804;8.330;2023-05-29T03:29:03;12.20;88.00
3550;DHT22;45572;48.804;8.330;2023-05-29T03:31:48;12.20;88.00
3550;DHT22;45572;48.804;8.330;2023-05-29T03:34:23;12.10;88.10
3550;DHT22;45572;48.804;8.330;2023-05-29T03:36:56;12.10;88.30
3550;DHT22;45572;48.804;8.330;2023-05-29T03:39:26;12.00;88.40
3550;DHT22;45572;48.804;8.330;2023-05-29T03:42:08;11.90;88.50
3550;DHT22;45572;48.804;8.330;2023-05-29T03:44:36;11.90;88.50
3550;DHT22;45572;48.804;8.330;2023-05-29T03:47:07;11.80;88.80
3550;DHT22;45572;48.804;8.330;2023-05-29T03:49:38;11.80;89.10
3550;DHT22;45572;48.804;8.330;2023-05-29T03:52:06;11.90;88.80
3550;DHT22;45572;48.804;8.330;2023-05-29T03:54:35;11.90;88.80
3550;DHT22;45572;48.804;8.330;2023-05-29T03:57:03;11.90;88.50
3550;DHT22;45572;48.804;8.330;2023-05-29T03:59:32;12.00;88.70
3550;DHT22;45572;48.804;8.330;2023-05-29T04:02:00;11.90;88.80
3550;DHT22;45572;48.804;8.330;2023-05-29T04:04:31;11.80;88.90
3550;DHT22;45572;48.804;8.330;2023-05-29T04:06:59;11.70;89.30
3550;DHT22;45572;48.804;8.330;2023-05-29T04:09:27;11.70;89.30
3550;DHT22;45572;48.804;8.330;2023-05-29T04:11:55;11.70;89.30
3550;DHT22;45572;48.804;8.330;2023-05-29T04:14:22;11.80;89.50
3550;DHT22;45572;48.804;8.330;2023-05-29T04:16:50;11.90;89.50
3550;DHT22;45572;48.804;8.330;2023-05-29T04:19:18;11.90;89.00
3550;DHT22;45572;48.804;8.330;2023-05-29T04:21:52;11.90;89.00
3550;DHT22;45572;48.804;8.330;2023-05-29T04:24:19;12.00;88.80
3550;DHT22;45572;48.804;8.330;2023-05-29T04:26:48;11.90;88.80
3550;DHT22;45572;48.804;8.330;2023-05-29T04:29:20;11.90;89.00
3550;DHT22;45572;48.804;8.330;2023-05-29T04:31:49;11.90;89.00
3550;DHT22;45572;48.804;8.330;2023-05-29T04:34:31;12.00;89.40
3550;DHT22;45572;48.804;8.330;2023-05-29T04:37:03;12.10;89.10
3550;DHT22;45572;48.804;8.330;2023-05-29T04:39:38;12.20;88.90
3550;DHT22;45572;48.804;8.330;2023-05-29T04:42:07;12.30;88.80
3550;DHT22;45572;48.804;8.330;2023-05-29T04:44:35;12.30;88.80
3550;DHT22;45572;48.804;8.330;2023-05-29T04:47:04;12.40;88.80
3550;DHT22;45572;48.804;8.330;2023-05-29T04:49:33;12.50;88.60
3550;DHT22;45572;48.804;8.330;2023-05-29T04:52:04;12.60;88.50
3550;DHT22;45572;48.804;8.330;2023-05-29T04:54:33;12.70;88.30
3550;DHT22;45572;48.804;8.330;2023-05-29T04:57:02;12.80;88.20
3550;DHT22;45572;48.804;8.330;2023-05-29T04:59:44;12.80;88.00
3550;DHT22;45572;48.804;8.330;2023-05-29T05:02:13;12.90;87.50
3550;DHT22;45572;48.804;8.330;2023-05-29T05:04:41;13.00;87.70
3550;DHT22;45572;48.804;8.330;2023-05-29T05:07:11;13.10;87.40
3550;DHT22;45572;48.804;8.330;2023-05-29T05:09:40;13.20;87.70
3550;DHT22;45572;48.804;8.330;2023-05-29T05:12:12;13.40;87.10
3550;DHT22;45572;48.804;8.330;2023-05-29T05:14:40;13.50;87.10
3550;DHT22;45572;48.804;8.330;2023-05-29T05:17:07;13.60;87.20
3550;DHT22;45572;48.804;8.330;2023-05-29T05:19:36;13.90;86.80
3550;DHT22;45572;48.804;8.330;2023-05-29T05:22:06;14.00;86.20
3550;DHT22;45572;48.804;8.330;2023-05-29T05:24:38;14.20;85.80
3550;DHT22;45572;48.804;8.330;2023-05-29T05:27:20;14.40;85.30
3550;DHT22;45572;48.804;8.330;2023-05-29T05:29:48;14.70;84.80
3550;DHT22;45572;48.804;8.330;2023-05-29T05:32:16;15.00;83.50
3550;DHT22;45572;48.804;8.330;2023-05-29T05:35:04;15.20;83.20
3550;DHT22;45572;48.804;8.330;2023-05-29T05:37:48;15.50;82.40
3550;DHT22;45572;48.804;8.330;2023-05-29T05:40:18;15.80;82.20
3550;DHT22;45572;48.804;8.330;2023-05-29T05:42:56;16.10;79.90
3550;DHT22;45572;48.804;8.330;2023-05-29T05:45:57;16.40;78.10
3550;DHT22;45572;48.804;8.330;2023-05-29T05:48:43;16.60;77.10
3550;DHT22;45572;48.804;8.330;2023-05-29T05:51:11;17.00;76.80
3550;DHT22;45572;48.804;8.330;2023-05-29T05:53:40;16.90;75.80
3550;DHT22;45572;48.804;8.330;2023-05-29T05:56:10;16.70;76.90
3550;DHT22;45572;48.804;8.330;2023-05-29T05:58:44;17.10;76.70
3550;DHT22;45572;48.804;8.330;2023-05-29T06:01:12;17.80;73.20
3550;DHT22;45572;48.804;8.330;2023-05-29T06:03:41;18.70;71.20
3550;DHT22;45572;48.804;8.330;2023-05-29T06:06:09;19.50;69.10
3550;DHT22;45572;48.804;8.330;2023-05-29T06:08:39;20.80;67.30
3550;DHT22;45572;48.804;8.330;2023-05-29T06:11:09;22.20;64.20
3550;DHT22;45572;48.804;8.330;2023-05-29T06:13:39;23.00;58.50
3550;DHT22;45572;48.804;8.330;2023-05-29T06:16:14;21.90;61.00
3550;DHT22;45572;48.804;8.330;2023-05-29T06:18:43;22.50;60.80
3550;DHT22;45572;48.804;8.330;2023-05-29T06:21:12;23.70;58.00
3550;DHT22;45572;48.804;8.330;2023-05-29T06:23:47;24.40;56.50
3550;DHT22;45572;48.804;8.330;2023-05-29T06:26:16;25.50;54.70
3550;DHT22;45572;48.804;8.330;2023-05-29T06:28:44;26.50;53.10
3550;DHT22;45572;48.804;8.330;2023-05-29T06:31:12;26.90;50.50
3550;DHT22;45572;48.804;8.330;2023-05-29T06:33:54;25.10;53.20
3550;DHT22;45572;48.804;8.330;2023-05-29T06:36:36;25.90;53.40
3550;DHT22;45572;48.804;8.330;2023-05-29T06:39:05;27.30;51.00
3550;DHT22;45572;48.804;8.330;2023-05-29T06:41:48;28.30;48.40
3550;DHT22;45572;48.804;8.330;2023-05-29T06:44:17;28.70;47.00
3550;DHT22;45572;48.804;8.330;2023-05-29T06:46:46;29.40;46.50
3550;DHT22;45572;48.804;8.330;2023-05-29T06:49:16;30.20;46.00
3550;DHT22;45572;48.804;8.330;2023-05-29T06:51:44;30.90;44.60
3550;DHT22;45572;48.804;8.330;2023-05-29T06:54:22;31.40;44.70
3550;DHT22;45572;48.804;8.330;2023-05-29T06:56:51;31.70;44.10
3550;DHT22;45572;48.804;8.330;2023-05-29T06:59:36;32.20;42.80
3550;DHT22;45572;48.804;8.330;2023-05-29T07:02:14;32.80;42.10
3550;DHT22;45572;48.804;8.330;2023-05-29T07:04:44;32.80;41.10
3550;DHT22;45572;48.804;8.330;2023-05-29T07:07:13;33.40;41.80
3550;DHT22;45572;48.804;8.330;2023-05-29T07:09:41;33.10;40.20
3550;DHT22;45572;48.804;8.330;2023-05-29T07:12:10;33.00;40.90
3550;DHT22;45572;48.804;8.330;2023-05-29T07:14:38;31.40;42.30
3550;DHT22;45572;48.804;8.330;2023-05-29T07:17:06;30.80;43.50
3550;DHT22;45572;48.804;8.330;2023-05-29T07:19:35;29.20;45.10
3550;DHT22;45572;48.804;8.330;2023-05-29T07:22:04;29.60;45.30
3550;DHT22;45572;48.804;8.330;2023-05-29T07:24:32;28.90;45.50
3550;DHT22;45572;48.804;8.330;2023-05-29T07:27:03;29.80;44.70
3550;DHT22;45572;48.804;8.330;2023-05-29T07:29:33;31.00;43.40
3550;DHT22;45572;48.804;8.330;2023-05-29T07:32:01;31.70;43.60
3550;DHT22;45572;48.804;8.330;2023-05-29T07:34:30;33.10;41.70
3550;DHT22;45572;48.804;8.330;2023-05-29T07:37:00;32.40;40.80
3550;DHT22;45572;48.804;8.330;2023-05-29T07:39:30;33.10;41.00
3550;DHT22;45572;48.804;8.330;2023-05-29T07:42:01;33.50;41.60
3550;DHT22;45572;48.804;8.330;2023-05-29T07:44:29;33.70;39.20
3550;DHT22;45572;48.804;8.330;2023-05-29T07:46:59;33.80;39.40
3550;DHT22;45572;48.804;8.330;2023-05-29T07:49:33;33.30;39.80
3550;DHT22;45572;48.804;8.330;2023-05-29T07:52:03;33.80;40.90
3550;DHT22;45572;48.804;8.330;2023-05-29T07:54:32;34.00;39.20
3550;DHT22;45572;48.804;8.330;2023-05-29T07:57:01;34.00;40.00
3550;DHT22;45572;48.804;8.330;2023-05-29T07:59:31;34.50;39.50
3550;DHT22;45572;48.804;8.330;2023-05-29T08:02:01;34.90;38.70
3550;DHT22;45572;48.804;8.330;2023-05-29T08:04:43;35.20;38.20
3550;DHT22;45572;48.804;8.330;2023-05-29T08:07:13;35.30;38.20
3550;DHT22;45572;48.804;8.330;2023-05-29T08:09:41;35.50;37.80
3550;DHT22;45572;48.804;8.330;2023-05-29T08:12:08;35.60;37.80
3550;DHT22;45572;48.804;8.330;2023-05-29T08:14:37;35.60;37.20
3550;DHT22;45572;48.804;8.330;2023-05-29T08:17:06;35.70;37.20
3550;DHT22;45572;48.804;8.330;2023-05-29T08:19:34;35.50;38.10
3550;DHT22;45572;48.804;8.330;2023-05-29T08:22:03;35.80;37.20
3550;DHT22;45572;48.804;8.330;2023-05-29T08:24:30;36.00;36.80
3550;DHT22;45572;48.804;8.330;2023-05-29T08:26:58;35.60;36.40
3550;DHT22;45572;48.804;8.330;2023-05-29T08:29:26;35.80;36.20
3550;DHT22;45572;48.804;8.330;2023-05-29T08:31:54;35.70;36.40
3550;DHT22;45572;48.804;8.330;2023-05-29T08:34:23;35.90;36.40
3550;DHT22;45572;48.804;8.330;2023-05-29T08:36:51;35.90;38.40
3550;DHT22;45572;48.804;8.330;2023-05-29T08:39:21;35.90;37.20
3550;DHT22;45572;48.804;8.330;2023-05-29T08:41:54;35.80;37.60
3550;DHT22;45572;48.804;8.330;2023-05-29T08:44:28;35.40;37.90
3550;DHT22;45572;48.804;8.330;2023-05-29T08:47:02;35.50;37.40
3550;DHT22;45572;48.804;8.330;2023-05-29T08:49:37;36.00;36.60
3550;DHT22;45572;48.804;8.330;2023-05-29T08:52:11;35.90;37.80
3550;DHT22;45572;48.804;8.330;2023-05-29T08:54:40;36.10;37.20
3550;DHT22;45572;48.804;8.330;2023-05-29T08:57:09;35.80;38.00
3550;DHT22;45572;48.804;8.330;2023-05-29T08:59:40;36.30;37.40
3550;DHT22;45572;48.804;8.330;2023-05-29T09:02:09;36.20;37.50
3550;DHT22;45572;48.804;8.330;2023-05-29T09:04:43;37.00;36.70
3550;DHT22;45572;48.804;8.330;2023-05-29T09:07:14;36.70;36.40
3550;DHT22;45572;48.804;8.330;2023-05-29T09:09:42;36.50;37.30
3550;DHT22;45572;48.804;8.330;2023-05-29T09:12:11;36.90;37.10
3550;DHT22;45572;48.804;8.330;2023-05-29T09:14:41;37.90;37.90
3550;DHT22;45572;48.804;8.330;2023-05-29T09:17:13;38.70;37.00
3550;DHT22;45572;48.804;8.330;2023-05-29T09:19:43;38.50;35.30
3550;DHT22;45572;48.804;8.330;2023-05-29T09:22:14;39.10;35.10
3550;DHT22;45572;48.804;8.330;2023-05-29T09:24:47;38.80;35.50
3550;DHT22;45572;48.804;8.330;2023-05-29T09:27:17;38.70;36.60
3550;DHT22;45572;48.804;8.330;2023-05-29T09:29:45;38.90;37.00
3550;DHT22;45572;48.804;8.330;2023-05-29T09:32:15;39.00;34.70
3550;DHT22;45572;48.804;8.330;2023-05-29T09:34:45;38.70;35.60
3550;DHT22;45572;48.804;8.330;2023-05-29T09:37:13;39.00;37.50
3550;DHT22;45572;48.804;8.330;2023-05-29T09:39:45;38.80;36.10
3550;DHT22;45572;48.804;8.330;2023-05-29T09:42:14;38.60;37.00
3550;DHT22;45572;48.804;8.330;2023-05-29T09:44:45;39.10;35.70
3550;DHT22;45572;48.804;8.330;2023-05-29T09:47:17;38.80;36.00
3550;DHT22;45572;48.804;8.330;2023-05-29T09:49:47;37.90;37.20
3550;DHT22;45572;48.804;8.330;2023-05-29T09:52:15;38.80;36.70
3550;DHT22;45572;48.804;8.330;2023-05-29T09:54:48;39.10;34.40
3550;DHT22;45572;48.804;8.330;2023-05-29T09:57:17;39.40;35.30
3550;DHT22;45572;48.804;8.330;2023-05-29T09:59:46;39.30;35.10
3550;DHT22;45572;48.804;8.330;2023-05-29T10:02:18;39.20;35.20
3550;DHT22;45572;48.804;8.330;2023-05-29T10:04:48;38.80;35.70
3550;DHT22;45572;48.804;8.330;2023-05-29T10:07:22;38.20;36.10
3550;DHT22;45572;48.804;8.330;2023-05-29T10:09:54;37.70;36.10
3550;DHT22;45572;48.804;8.330;2023-05-29T10:12:26;37.40;35.60
3550;DHT22;45572;48.804;8.330;2023-05-29T10:14:57;37.70;35.80
3550;DHT22;45572;48.804;8.330;2023-05-29T10:17:32;37.20;36.30
3550;DHT22;45572;48.804;8.330;2023-05-29T10:20:05;37.80;36.30
3550;DHT22;45572;48.804;8.330;2023-05-29T10:22:35;38.10;36.80
3550;DHT22;45572;48.804;8.330;2023-05-29T10:25:07;38.30;36.80
3550;DHT22;45572;48.804;8.330;2023-05-29T10:27:38;38.60;36.70
3550;DHT22;45572;48.804;8.330;2023-05-29T10:30:10;38.50;36.20
3550;DHT22;45572;48.804;8.330;2023-05-29T10:32:48;38.50;36.70
3550;DHT22;45572;48.804;8.330;2023-05-29T10:35:27;38.60;35.00
3550;DHT22;45572;48.804;8.330;2023-05-29T10:38:08;39.00;34.60
3550;DHT22;45572;48.804;8.330;2023-05-29T10:40:37;38.10;35.80
3550;DHT22;45572;48.804;8.330;2023-05-29T10:43:05;38.40;35.40
3550;DHT22;45572;48.804;8.330;2023-05-29T10:45:48;39.20;35.20
3550;DHT22;45572;48.804;8.330;2023-05-29T10:48:35;39.10;35.10
3550;DHT22;45572;48.804;8.330;2023-05-29T10:51:07;38.60;33.60
3550;DHT22;45572;48.804;8.330;2023-05-29T10:53:40;37.70;34.40
3550;DHT22;45572;48.804;8.330;2023-05-29T10:56:15;37.20;35.50
3550;DHT22;45572;48.804;8.330;2023-05-29T10:58:52;37.50;34.60
3550;DHT22;45572;48.804;8.330;2023-05-29T11:01:21;37.40;35.60
3550;DHT22;45572;48.804;8.330;2023-05-29T11:03:50;37.00;36.80
3550;DHT22;45572;48.804;8.330;2023-05-29T11:06:21;37.40;35.00
3550;DHT22;45572;48.804;8.330;2023-05-29T11:08:54;37.10;37.00
3550;DHT22;45572;48.804;8.330;2023-05-29T11:11:30;36.70;36.40
3550;DHT22;45572;48.804;8.330;2023-05-29T11:14:02;37.10;36.10
3550;DHT22;45572;48.804;8.330;2023-05-29T11:16:36;37.40;35.50
3550;DHT22;45572;48.804;8.330;2023-05-29T11:19:06;37.10;35.70
3550;DHT22;45572;48.804;8.330;2023-05-29T11:21:46;37.50;36.50
3550;DHT22;45572;48.804;8.330;2023-05-29T11:24:21;37.70;34.10
3550;DHT22;45572;48.804;8.330;2023-05-29T11:26:51;37.10;35.10
3550;DHT22;45572;48.804;8.330;2023-05-29T11:29:21;37.30;36.00
3550;DHT22;45572;48.804;8.330;2023-05-29T11:31:57;37.10;34.20
3550;DHT22;45572;48.804;8.330;2023-05-29T11:34:28;36.60;34.70
3550;DHT22;45572;48.804;8.330;2023-05-29T11:36:58;36.20;35.10
3550;DHT22;45572;48.804;8.330;2023-05-29T11:39:29;36.10;35.60
3550;DHT22;45572;48.804;8.330;2023-05-29T11:42:00;36.00;34.90
3550;DHT22;45572;48.804;8.330;2023-05-29T11:44:28;35.90;34.10
3550;DHT22;45572;48.804;8.330;2023-05-29T11:47:00;35.60;35.20
3550;DHT22;45572;48.804;8.330;2023-05-29T11:49:31;34.80;36.10
3550;DHT22;45572;48.804;8.330;2023-05-29T11:52:10;34.80;36.20
3550;DHT22;45572;48.804;8.330;2023-05-29T11:54:41;34.50;37.60
3550;DHT22;45572;48.804;8.330;2023-05-29T11:57:17;35.00;37.10
3550;DHT22;45572;48.804;8.330;2023-05-29T11:59:46;35.40;37.20
3550;DHT22;45572;48.804;8.330;2023-05-29T12:02:15;35.20;35.80
3550;DHT22;45572;48.804;8.330;2023-05-29T12:04:43;35.60;36.30
3550;DHT22;45572;48.804;8.330;2023-05-29T12:07:21;35.40;34.20
3550;DHT22;45572;48.804;8.330;2023-05-29T12:09:48;35.10;35.50
3550;DHT22;45572;48.804;8.330;2023-05-29T12:12:19;35.10;35.60
3550;DHT22;45572;48.804;8.330;2023-05-29T12:14:50;35.10;36.00
3550;DHT22;45572;48.804;8.330;2023-05-29T12:17:18;35.40;35.40
3550;DHT22;45572;48.804;8.330;2023-05-29T12:19:46;35.50;34.20
3550;DHT22;45572;48.804;8.330;2023-05-29T12:22:14;36.00;34.90
3550;DHT22;45572;48.804;8.330;2023-05-29T12:24:44;35.40;34.60
3550;DHT22;45572;48.804;8.330;2023-05-29T12:27:12;34.50;35.80
3550;DHT22;45572;48.804;8.330;2023-05-29T12:29:41;34.50;35.80
3550;DHT22;45572;48.804;8.330;2023-05-29T12:32:10;34.00;35.60
3550;DHT22;45572;48.804;8.330;2023-05-29T12:34:38;33.70;36.20
3550;DHT22;45572;48.804;8.330;2023-05-29T12:37:08;33.60;36.80
3550;DHT22;45572;48.804;8.330;2023-05-29T12:39:40;33.40;36.70
3550;DHT22;45572;48.804;8.330;2023-05-29T12:42:10;33.60;37.80
3550;DHT22;45572;48.804;8.330;2023-05-29T12:44:38;33.70;37.40
3550;DHT22;45572;48.804;8.330;2023-05-29T12:47:06;33.50;36.90
3550;DHT22;45572;48.804;8.330;2023-05-29T12:49:36;33.40;37.70
3550;DHT22;45572;48.804;8.330;2023-05-29T12:52:06;32.50;37.70
3550;DHT22;45572;48.804;8.330;2023-05-29T12:54:34;31.70;38.70
3550;DHT22;45572;48.804;8.330;2023-05-29T12:57:02;31.20;42.00
3550;DHT22;45572;48.804;8.330;2023-05-29T12:59:34;30.70;40.80
3550;DHT22;45572;48.804;8.330;2023-05-29T13:02:05;30.00;41.80
3550;DHT22;45572;48.804;8.330;2023-05-29T13:04:37;29.70;43.20
3550;DHT22;45572;48.804;8.330;2023-05-29T13:07:05;29.40;41.80
3550;DHT22;45572;48.804;8.330;2023-05-29T13:09:33;29.10;42.40
3550;DHT22;45572;48.804;8.330;2023-05-29T13:12:02;29.00;42.90
3550;DHT22;45572;48.804;8.330;2023-05-29T13:14:30;28.90;43.50
3550;DHT22;45572;48.804;8.330;2023-05-29T13:17:00;28.80;43.70
3550;DHT22;45572;48.804;8.330;2023-05-29T13:19:28;28.80;43.40
3550;DHT22;45572;48.804;8.330;2023-05-29T13:21:56;28.60;43.70
3550;DHT22;45572;48.804;8.330;2023-05-29T13:24:25;28.60;43.90
3550;DHT22;45572;48.804;8.330;2023-05-29T13:26:53;28.40;42.10
3550;DHT22;45572;48.804;8.330;2023-05-29T13:29:20;28.20;43.50
3550;DHT22;45572;48.804;8.330;2023-05-29T13:31:48;28.20;45.20
3550;DHT22;45572;48.804;8.330;2023-05-29T13:34:18;28.20;43.60
3550;DHT22;45572;48.804;8.330;2023-05-29T13:36:46;28.10;44.60
3550;DHT22;45572;48.804;8.330;2023-05-29T13:39:15;28.00;43.30
3550;DHT22;45572;48.804;8.330;2023-05-29T13:41:42;28.10;42.40
3550;DHT22;45572;48.804;8.330;2023-05-29T13:44:10;28.00;43.60
3550;DHT22;45572;48.804;8.330;2023-05-29T13:46:38;28.10;45.40
3550;DHT22;45572;48.804;8.330;2023-05-29T13:49:08;28.10;44.30
3550;DHT22;45572;48.804;8.330;2023-05-29T13:51:37;28.20;43.20
3550;DHT22;45572;48.804;8.330;2023-05-29T13:54:05;28.10;43.70
3550;DHT22;45572;48.804;8.330;2023-05-29T13:56:33;27.90;43.40
3550;DHT22;45572;48.804;8.330;2023-05-29T13:59:01;27.90;43.60
3550;DHT22;45572;48.804;8.330;2023-05-29T14:01:33;27.90;42.60
3550;DHT22;45572;48.804;8.330;2023-05-29T14:04:02;27.70;41.70
3550;DHT22;45572;48.804;8.330;2023-05-29T14:06:30;27.70;42.00
3550;DHT22;45572;48.804;8.330;2023-05-29T14:09:00;27.60;41.90
3550;DHT22;45572;48.804;8.330;2023-05-29T14:11:28;27.60;41.70
3550;DHT22;45572;48.804;8.330;2023-05-29T14:13:56;27.50;42.10
3550;DHT22;45572;48.804;8.330;2023-05-29T14:16:24;27.50;43.00
3550;DHT22;45572;48.804;8.330;2023-05-29T14:18:52;27.50;42.00
3550;DHT22;45572;48.804;8.330;2023-05-29T14:21:20;27.50;42.20
3550;DHT22;45572;48.804;8.330;2023-05-29T14:23:48;27.40;42.30
3550;DHT22;45572;48.804;8.330;2023-05-29T14:26:17;27.40;43.90
3550;DHT22;45572;48.804;8.330;2023-05-29T14:28:45;27.60;43.40
3550;DHT22;45572;48.804;8.330;2023-05-29T14:31:13;27.60;41.60
3550;DHT22;45572;48.804;8.330;2023-05-29T14:33:41;27.50;42.60
3550;DHT22;45572;48.804;8.330;2023-05-29T14:36:09;27.50;43.60
3550;DHT22;45572;48.804;8.330;2023-05-29T14:38:38;27.60;43.70
3550;DHT22;45572;48.804;8.330;2023-05-29T14:41:06;27.50;41.80
3550;DHT22;45572;48.804;8.330;2023-05-29T14:43:38;27.50;41.60
3550;DHT22;45572;48.804;8.330;2023-05-29T14:46:05;27.50;42.80
3550;DHT22;45572;48.804;8.330;2023-05-29T14:48:34;27.50;44.20
3550;DHT22;45572;48.804;8.330;2023-05-29T14:51:02;27.50;43.30
3550;DHT22;45572;48.804;8.330;2023-05-29T14:53:31;27.50;43.20
3550;DHT22;45572;48.804;8.330;2023-05-29T14:55:59;27.50;42.00
3550;DHT22;45572;48.804;8.330;2023-05-29T14:58:27;27.40;43.00
3550;DHT22;45572;48.804;8.330;2023-05-29T15:00:58;27.50;43.20
3550;DHT22;45572;48.804;8.330;2023-05-29T15:03:28;27.40;42.10
3550;DHT22;45572;48.804;8.330;2023-05-29T15:05:56;27.50;42.40
3550;DHT22;45572;48.804;8.330;2023-05-29T15:08:24;27.40;42.20
3550;DHT22;45572;48.804;8.330;2023-05-29T15:10:54;27.30;42.00
3550;DHT22;45572;48.804;8.330;2023-05-29T15:13:22;27.30;43.80
3550;DHT22;45572;48.804;8.330;2023-05-29T15:15:51;27.30;43.40
3550;DHT22;45572;48.804;8.330;2023-05-29T15:18:20;27.30;43.40
3550;DHT22;45572;48.804;8.330;2023-05-29T15:20:48;27.30;43.20
3550;DHT22;45572;48.804;8.330;2023-05-29T15:23:15;27.30;44.00
3550;DHT22;45572;48.804;8.330;2023-05-29T15:25:43;27.30;42.10
3550;DHT22;45572;48.804;8.330;2023-05-29T15:28:11;27.20;43.00
3550;DHT22;45572;48.804;8.330;2023-05-29T15:30:39;27.20;42.50
3550;DHT22;45572;48.804;8.330;2023-05-29T15:33:07;27.10;43.70
3550;DHT22;45572;48.804;8.330;2023-05-29T15:35:38;27.10;43.70
3550;DHT22;45572;48.804;8.330;2023-05-29T15:38:07;27.20;44.60
3550;DHT22;45572;48.804;8.330;2023-05-29T15:40:34;27.30;44.20
3550;DHT22;45572;48.804;8.330;2023-05-29T15:43:02;27.30;44.20
3550;DHT22;45572;48.804;8.330;2023-05-29T15:45:30;27.40;44.40
3550;DHT22;45572;48.804;8.330;2023-05-29T15:47:58;27.30;43.90
3550;DHT22;45572;48.804;8.330;2023-05-29T15:50:26;27.30;42.60
3550;DHT22;45572;48.804;8.330;2023-05-29T15:52:55;27.30;43.20
3550;DHT22;45572;48.804;8.330;2023-05-29T15:55:23;27.30;42.30
3550;DHT22;45572;48.804;8.330;2023-05-29T15:57:51;27.30;41.60
3550;DHT22;45572;48.804;8.330;2023-05-29T16:00:19;27.30;42.50
3550;DHT22;45572;48.804;8.330;2023-05-29T16:02:47;27.30;41.40
3550;DHT22;45572;48.804;8.330;2023-05-29T16:05:16;27.20;42.00
3550;DHT22;45572;48.804;8.330;2023-05-29T16:07:44;27.10;43.30